Time;durP1;ratioP1;P1;durP2;ratioP2;P2;SDS_P1;SDS_P2;PMS_P1;PMS_P2;Temp;Humidity;BMP_temperature;BMP_pressure;BME280_temperature;BME280_humidity;BME280_pressure;Samples;Min_cycle;Max_cycle;Signal;HPM_P1;HPM_P2
2023/08/20 00:00:11;;;;;;;8.48;6.35;;;;;;;22.46;44.42;94127.69;4984608;28;20036;-78
2023/08/20 00:02:37;;;;;;;7.40;6.00;;;;;;;22.44;44.33;94127.28;5002389;28;20055;-79
2023/08/20 00:05:04;;;;;;;6.63;5.85;;;;;;;22.36;44.07;94116.78;4994965;28;20055;-79
2023/08/20 00:07:30;;;;;;;8.13;6.88;;;;;;;22.36;44.64;94128.41;5001250;28;20414;-78
2023/08/20 00:09:56;;;;;;;8.93;5.93;;;;;;;22.33;45.19;94128.41;5001087;28;20350;-77
2023/08/20 00:12:22;;;;;;;7.95;6.20;;;;;;;22.28;44.93;94124.13;4987055;28;20039;-78
2023/08/20 00:14:58;;;;;;;6.85;6.20;;;;;;;22.24;45.07;94134.91;4989349;28;20065;-77
2023/08/20 00:17:26;;;;;;;8.32;6.82;;;;;;;22.12;45.10;94124.38;4995555;28;20028;-79
2023/08/20 00:19:54;;;;;;;7.95;6.55;;;;;;;22.05;45.53;94129.75;4997859;28;20036;-78
2023/08/20 00:22:22;;;;;;;12.73;6.10;;;;;;;22.11;45.63;94122.81;4991154;28;20574;-77
2023/08/20 00:24:48;;;;;;;9.00;6.38;;;;;;;22.05;45.58;94137.88;4989850;28;20042;-79
2023/08/20 00:27:14;;;;;;;9.20;7.10;;;;;;;22.01;45.49;94134.38;4992446;28;20030;-78
2023/08/20 00:29:39;;;;;;;9.52;6.80;;;;;;;21.98;45.61;94135.13;4990527;28;20054;-79
2023/08/20 00:32:05;;;;;;;8.30;6.53;;;;;;;21.86;45.77;94121.88;4989327;28;20031;-77
2023/08/20 00:34:31;;;;;;;8.23;7.45;;;;;;;21.90;46.66;94130.84;4985914;28;20078;-77
2023/08/20 00:36:57;;;;;;;7.78;7.00;;;;;;;21.91;46.62;94131.59;4984633;28;20101;-78
2023/08/20 00:39:23;;;;;;;8.02;7.22;;;;;;;21.77;45.63;94116.03;4984463;28;20554;-78
2023/08/20 00:41:48;;;;;;;12.55;8.45;;;;;;;21.76;46.00;94109.84;4977249;28;20046;-78
2023/08/20 00:44:13;;;;;;;9.90;7.55;;;;;;;21.72;46.19;94119.88;4986002;28;20064;-78
2023/08/20 00:46:39;;;;;;;8.38;7.60;;;;;;;21.79;46.35;94127.28;4982474;28;20502;-78
2023/08/20 00:49:05;;;;;;;10.30;8.15;;;;;;;21.83;45.43;94134.28;4981246;28;20414;-78
2023/08/20 00:51:33;;;;;;;10.32;8.02;;;;;;;21.64;45.43;94098.56;4981590;28;20042;-77
2023/08/20 00:53:59;;;;;;;10.00;7.38;;;;;;;21.89;45.13;94121.16;4986178;28;20066;-77
2023/08/20 00:56:26;;;;;;;8.52;7.45;;;;;;;21.88;45.26;94114.97;4988836;28;20203;-76
2023/08/20 00:58:54;;;;;;;7.78;6.97;;;;;;;22.02;45.10;94122.38;4982070;28;20076;-77
2023/08/20 01:01:19;;;;;;;9.13;7.60;;;;;;;22.09;44.67;94122.44;5002953;28;20035;-78
2023/08/20 01:03:44;;;;;;;9.40;7.20;;;;;;;22.02;44.92;94114.28;4988992;28;20510;-76
2023/08/20 01:06:22;;;;;;;10.05;7.40;;;;;;;22.09;44.94;94127.09;4982959;28;20038;-76
2023/08/20 01:08:55;;;;;;;9.48;7.15;;;;;;;22.02;45.39;94119.69;4981532;28;20071;-77
2023/08/20 01:11:29;;;;;;;9.40;7.80;;;;;;;22.11;45.99;94127.47;4984461;28;20065;-77
2023/08/20 01:13:55;;;;;;;8.18;7.38;;;;;;;22.10;45.91;94125.91;4989410;28;20038;-76
2023/08/20 01:16:21;;;;;;;8.65;7.75;;;;;;;22.09;45.38;94124.38;4964211;28;20536;-78
2023/08/20 01:18:47;;;;;;;7.78;6.95;;;;;;;22.11;45.93;94133.66;4988635;28;20039;-76
2023/08/20 01:21:41;;;;;;;10.35;7.03;;;;;;;22.01;45.98;94123.53;4986145;28;20034;-76
2023/08/20 01:24:45;;;;;;;8.93;7.60;;;;;;;22.05;45.97;94124.34;4968169;28;20047;-78
2023/08/20 01:27:26;;;;;;;12.02;7.53;;;;;;;21.85;46.16;94101.41;4985805;28;20038;-76
2023/08/20 01:29:53;;;;;;;8.10;7.28;;;;;;;21.92;46.11;94109.56;4987396;28;20586;-78
2023/08/20 01:32:20;;;;;;;8.60;7.80;;;;;;;21.94;46.26;94123.50;4990432;28;20037;-76
2023/08/20 01:34:45;;;;;;;9.45;7.60;;;;;;;21.90;46.59;94121.94;4990206;28;20050;-76
2023/08/20 01:37:11;;;;;;;8.68;7.20;;;;;;;21.89;46.88;94118.44;4975769;28;20480;-77
2023/08/20 01:39:36;;;;;;;8.27;7.28;;;;;;;21.89;47.29;94118.44;4984451;28;20043;-77
2023/08/20 01:42:02;;;;;;;8.70;7.78;;;;;;;21.79;46.99;94113.75;4986679;28;20038;-77
2023/08/20 01:44:27;;;;;;;10.90;7.53;;;;;;;21.75;47.24;94099.41;4986615;28;20072;-76
2023/08/20 01:46:53;;;;;;;8.93;7.93;;;;;;;21.73;46.89;94097.06;5066717;28;20123;-79
2023/08/20 01:49:18;;;;;;;10.48;7.97;;;;;;;21.82;47.09;94113.75;5071942;28;20491;-78
2023/08/20 01:51:43;;;;;;;8.10;7.28;;;;;;;21.76;46.60;94107.13;5063031;28;20109;-76
2023/08/20 01:54:09;;;;;;;8.82;7.30;;;;;;;21.85;46.40;94115.69;5075457;28;20031;-76
2023/08/20 01:56:35;;;;;;;8.50;7.70;;;;;;;21.81;46.63;94108.72;5074931;28;20376;-77
2023/08/20 01:59:04;;;;;;;10.25;7.60;;;;;;;21.89;46.43;94121.16;5075334;28;20144;-76
2023/08/20 02:01:29;;;;;;;8.75;7.93;;;;;;;21.91;46.32;94113.41;5076202;28;20502;-78
2023/08/20 02:03:55;;;;;;;8.82;7.88;;;;;;;21.84;46.17;94103.34;5078570;28;20130;-79
2023/08/20 02:06:20;;;;;;;11.13;7.63;;;;;;;21.74;46.37;94090.50;5076002;28;20055;-80
2023/08/20 02:08:47;;;;;;;11.70;7.30;;;;;;;21.84;46.43;94103.34;5096706;27;20016;-78
2023/08/20 02:11:12;;;;;;;8.48;7.75;;;;;;;21.73;46.01;94085.47;5076642;28;20528;-78
2023/08/20 02:13:38;;;;;;;13.73;7.50;;;;;;;21.81;46.29;94092.47;5077473;28;20090;-77
2023/08/20 02:16:05;;;;;;;8.60;7.82;;;;;;;21.78;46.52;94085.88;5076946;28;20147;-78
2023/08/20 02:18:31;;;;;;;11.48;8.00;;;;;;;21.76;46.52;94092.81;5076615;28;20032;-77
2023/08/20 02:20:56;;;;;;;9.07;8.18;;;;;;;21.71;46.43;94088.53;5076671;28;20032;-77
2023/08/20 02:23:22;;;;;;;12.65;9.48;;;;;;;21.72;46.36;94100.16;5078832;28;20035;-79
2023/08/20 02:25:48;;;;;;;8.77;7.88;;;;;;;21.67;46.59;94098.56;5078642;28;20119;-79
2023/08/20 02:28:14;;;;;;;10.48;7.55;;;;;;;21.61;46.64;94088.50;5074056;28;20487;-79
2023/08/20 02:30:44;;;;;;;8.57;7.20;;;;;;;21.64;46.84;94093.13;5094298;27;20040;-77
2023/08/20 02:33:10;;;;;;;9.40;6.88;;;;;;;21.62;46.67;94096.22;5092944;27;20039;-77
2023/08/20 02:35:39;;;;;;;9.43;7.15;;;;;;;21.54;47.00;94083.75;5077643;28;20055;-78
2023/08/20 02:38:06;;;;;;;10.63;7.13;;;;;;;21.52;46.82;94101.50;5078580;28;20048;-78
2023/08/20 02:40:32;;;;;;;10.32;7.32;;;;;;;21.52;46.93;94090.69;5075621;28;20032;-79
2023/08/20 02:42:57;;;;;;;7.45;6.68;;;;;;;21.45;46.94;94092.22;5076924;28;20119;-78
2023/08/20 02:45:23;;;;;;;10.30;7.45;;;;;;;21.45;46.93;94091.44;5075037;28;20032;-78
2023/08/20 02:47:49;;;;;;;9.93;8.60;;;;;;;21.49;46.98;94096.84;5080758;28;20016;-79
2023/08/20 02:50:14;;;;;;;9.02;7.38;;;;;;;21.50;46.75;94104.63;5077532;28;20012;-80
2023/08/20 02:52:42;;;;;;;8.48;7.45;;;;;;;21.39;46.78;94092.91;5093972;27;20036;-79
2023/08/20 02:55:08;;;;;;;8.68;7.78;;;;;;;21.46;46.69;94104.56;5074852;28;20028;-77
2023/08/20 02:57:33;;;;;;;10.13;6.85;;;;;;;21.45;46.62;94113.84;5078777;28;20400;-77
2023/08/20 02:59:58;;;;;;;9.60;7.93;;;;;;;21.51;46.48;94121.63;5077199;28;20044;-79
2023/08/20 03:02:24;;;;;;;11.15;7.72;;;;;;;21.51;46.47;94127.03;5077602;28;20775;-77
2023/08/20 03:04:49;;;;;;;14.40;7.68;;;;;;;21.44;46.52;94123.13;5076282;28;20020;-76
2023/08/20 03:07:15;;;;;;;20.58;7.93;;;;;;;21.31;46.71;94112.97;5078927;28;20122;-76
2023/08/20 03:09:40;;;;;;;15.52;8.13;;;;;;;21.26;47.39;94114.06;5073985;28;20033;-78
2023/08/20 03:12:06;;;;;;;13.55;8.38;;;;;;;21.24;47.69;94119.06;5094742;27;20044;-78
2023/08/20 03:14:31;;;;;;;16.05;7.28;;;;;;;21.28;47.70;94129.91;5077813;28;20681;-78
2023/08/20 03:16:57;;;;;;;12.65;8.30;;;;;;;21.11;48.05;94114.31;5079345;28;20475;-77
2023/08/20 03:19:22;;;;;;;9.13;7.50;;;;;;;21.07;48.16;94113.50;5074461;28;20140;-78
2023/08/20 03:21:48;;;;;;;15.52;8.02;;;;;;;20.96;48.49;94097.19;5077645;28;20038;-80
2023/08/20 03:24:13;;;;;;;9.43;8.48;;;;;;;20.99;48.37;94118.06;5077190;28;20086;-77
2023/08/20 03:26:38;;;;;;;9.10;8.02;;;;;;;20.86;48.67;94108.63;5068217;28;20514;-77
2023/08/20 03:29:04;;;;;;;11.68;8.65;;;;;;;20.89;48.86;94114.09;5076118;28;20367;-76
2023/08/20 03:31:30;;;;;;;13.68;11.48;;;;;;;20.68;48.73;94086.06;5078392;28;20039;-77
2023/08/20 03:33:55;;;;;;;15.10;11.70;;;;;;;20.81;49.25;94117.06;5079622;28;20061;-79
2023/08/20 03:36:21;;;;;;;16.45;11.98;;;;;;;20.80;49.56;94116.28;5078037;28;20043;-78
2023/08/20 03:38:46;;;;;;;17.52;12.20;;;;;;;20.63;49.32;94094.50;5090026;27;20522;-78
2023/08/20 03:41:12;;;;;;;16.50;11.57;;;;;;;20.65;49.51;94108.41;5079552;28;20139;-77
2023/08/20 03:43:37;;;;;;;16.92;10.95;;;;;;;20.48;49.47;94082.75;5075932;28;20032;-78
2023/08/20 03:46:02;;;;;;;14.18;11.13;;;;;;;20.63;49.92;94116.88;5078990;28;20089;-78
2023/08/20 03:48:28;;;;;;;14.75;10.80;;;;;;;20.55;49.90;94110.63;5077280;28;20112;-78
2023/08/20 03:50:54;;;;;;;15.00;10.68;;;;;;;20.57;49.90;94111.03;5080648;28;20148;-76
2023/08/20 03:53:19;;;;;;;15.52;10.30;;;;;;;20.53;50.02;94096.69;5075680;28;20508;-79
2023/08/20 03:55:48;;;;;;;13.60;9.90;;;;;;;20.63;50.07;94105.31;5076388;28;20246;-77
2023/08/20 03:58:14;;;;;;;12.70;10.43;;;;;;;20.63;49.86;94094.50;5072955;28;20062;-77
2023/08/20 04:00:39;;;;;;;10.15;9.13;;;;;;;20.56;50.13;94089.78;5080704;28;20269;-77
2023/08/20 04:03:05;;;;;;;10.20;8.43;;;;;;;20.70;49.97;94099.97;5071600;28;20525;-77
2023/08/20 04:05:38;;;;;;;11.45;9.02;;;;;;;20.65;49.97;94092.19;5077971;28;20024;-78
2023/08/20 04:08:05;;;;;;;9.00;8.10;;;;;;;20.74;49.95;94111.56;5077598;28;20114;-80
2023/08/20 04:10:31;;;;;;;8.98;8.07;;;;;;;20.70;50.27;94089.94;5003825;28;20434;-79
2023/08/20 04:12:57;;;;;;;12.18;9.05;;;;;;;20.72;50.36;94106.56;4969979;28;20043;-76
2023/08/20 04:15:22;;;;;;;9.85;8.65;;;;;;;20.54;50.52;94079.31;5004712;28;20938;-77
2023/08/20 04:17:48;;;;;;;8.60;7.53;;;;;;;20.51;50.44;94065.78;5077696;28;20030;-78
2023/08/20 04:20:14;;;;;;;9.48;8.55;;;;;;;20.75;51.08;94107.75;5074701;28;20023;-78
2023/08/20 04:22:40;;;;;;;13.27;8.45;;;;;;;20.66;50.67;94086.41;5076310;28;20064;-77
2023/08/20 04:25:06;;;;;;;12.93;8.95;;;;;;;20.81;50.32;94103.56;5074556;28;20032;-78
2023/08/20 04:27:32;;;;;;;8.93;7.95;;;;;;;20.81;50.76;94103.56;5074864;28;20043;-78
2023/08/20 04:29:57;;;;;;;8.30;7.40;;;;;;;20.88;50.33;94107.13;5075139;28;21577;-78
2023/08/20 04:32:23;;;;;;;11.82;8.45;;;;;;;20.80;50.77;94088.47;5073967;28;20367;-78
2023/08/20 04:34:49;;;;;;;10.15;8.48;;;;;;;20.76;50.71;94079.56;5077159;28;20043;-78
2023/08/20 04:37:15;;;;;;;10.43;9.32;;;;;;;20.89;50.63;94094.41;5077398;28;20182;-77
2023/08/20 04:39:41;;;;;;;9.57;8.55;;;;;;;20.97;51.38;94109.56;5075429;28;20076;-79
2023/08/20 04:42:06;;;;;;;9.15;7.50;;;;;;;20.73;50.99;94074.91;5076594;28;20032;-79
2023/08/20 04:44:31;;;;;;;10.35;9.20;;;;;;;20.95;51.10;94106.44;5075528;28;20876;-79
2023/08/20 04:46:57;;;;;;;11.07;8.85;;;;;;;20.99;51.06;94097.22;5077531;28;20040;-77
2023/08/20 04:49:22;;;;;;;10.30;8.77;;;;;;;20.99;50.67;94108.03;5076680;28;20040;-79
2023/08/20 04:51:48;;;;;;;12.93;8.57;;;;;;;20.90;50.44;94082.44;5074925;28;20032;-77
2023/08/20 04:54:13;;;;;;;10.38;9.27;;;;;;;21.04;51.24;94104.19;5074591;28;20047;-78
2023/08/20 04:56:38;;;;;;;10.85;8.88;;;;;;;21.15;51.31;94110.50;5067768;28;20035;-77
2023/08/20 04:59:04;;;;;;;13.82;8.98;;;;;;;21.16;51.35;94109.34;5074542;28;20490;-79
2023/08/20 05:01:29;;;;;;;21.90;9.68;;;;;;;21.20;51.43;94112.84;5076356;28;20082;-76
2023/08/20 05:03:55;;;;;;;19.50;9.57;;;;;;;21.05;50.09;94092.25;5075222;28;20043;-77
2023/08/20 05:06:20;;;;;;;19.83;10.38;;;;;;;21.23;50.04;94104.00;5075420;28;20614;-77
2023/08/20 05:08:45;;;;;;;26.23;10.88;;;;;;;21.34;48.99;94112.19;5081260;28;20012;-77
2023/08/20 05:11:11;;;;;;;17.17;9.63;;;;;;;21.44;48.67;94117.69;5088914;28;20051;-77
2023/08/20 05:13:36;;;;;;;18.38;10.00;;;;;;;21.39;49.31;94101.81;5087740;28;21039;-77
2023/08/20 05:16:02;;;;;;;15.45;9.85;;;;;;;21.56;49.38;94116.66;5075353;28;20123;-78
2023/08/20 05:18:27;;;;;;;22.25;10.43;;;;;;;21.68;49.23;94121.00;5073277;28;20532;-76
2023/08/20 05:20:53;;;;;;;20.80;10.77;;;;;;;21.70;49.38;94126.81;5072595;28;20064;-78
2023/08/20 05:23:18;;;;;;;16.02;10.43;;;;;;;21.61;49.24;94099.31;5077428;28;20019;-80
2023/08/20 05:25:44;;;;;;;21.25;10.45;;;;;;;21.87;48.07;94115.34;5074305;28;20572;-77
2023/08/20 05:28:09;;;;;;;12.88;10.20;;;;;;;21.85;48.52;94115.69;5074380;28;20032;-80
2023/08/20 05:30:35;;;;;;;43.20;12.45;;;;;;;21.55;50.11;94125.16;5067260;28;20037;-77
2023/08/20 05:33:00;;;;;;;25.13;10.52;;;;;;;21.72;50.29;94132.63;5077491;28;20058;-78
2023/08/20 05:35:26;;;;;;;22.33;10.00;;;;;;;21.96;49.91;94126.59;5071883;28;20055;-77
2023/08/20 05:37:51;;;;;;;27.13;9.52;;;;;;;21.87;49.41;94104.50;5074615;28;20036;-78
2023/08/20 05:40:16;;;;;;;32.53;10.88;;;;;;;22.24;48.90;94132.22;5074824;28;20492;-80
2023/08/20 05:42:42;;;;;;;21.65;10.30;;;;;;;22.36;48.53;94128.41;5076480;28;20040;-80
2023/08/20 05:45:07;;;;;;;16.52;8.82;;;;;;;22.42;48.38;94120.69;5074529;28;20031;-78
2023/08/20 05:47:33;;;;;;;12.77;8.80;;;;;;;22.62;48.33;94119.22;5073913;28;20118;-79
2023/08/20 05:49:58;;;;;;;14.93;9.95;;;;;;;22.43;48.18;94130.38;5076231;28;20032;-77
2023/08/20 05:52:24;;;;;;;13.73;9.48;;;;;;;22.38;48.15;94136.94;5074518;28;20040;-77
2023/08/20 05:54:49;;;;;;;13.88;8.93;;;;;;;22.60;47.52;94122.31;5073234;28;20080;-77
2023/08/20 05:57:14;;;;;;;16.77;9.82;;;;;;;22.76;47.42;94135.53;5072241;28;20040;-79
2023/08/20 05:59:40;;;;;;;13.07;9.25;;;;;;;22.80;47.74;94139.03;5076260;28;20017;-76
2023/08/20 06:02:06;;;;;;;17.33;9.57;;;;;;;22.66;48.18;94136.28;5075903;28;20435;-78
2023/08/20 06:04:31;;;;;;;15.57;9.73;;;;;;;22.81;48.22;94124.34;5073240;28;20044;-77
2023/08/20 06:06:56;;;;;;;15.23;10.40;;;;;;;22.67;48.53;94132.41;5076397;28;20116;-78
2023/08/20 06:09:22;;;;;;;15.68;9.43;;;;;;;22.83;47.65;94116.56;5092070;28;20040;-80
2023/08/20 06:11:48;;;;;;;11.38;7.95;;;;;;;23.04;46.58;94132.94;5075202;28;20137;-78
2023/08/20 06:14:13;;;;;;;13.98;9.02;;;;;;;23.20;47.21;94138.00;5078049;28;20031;-76
2023/08/20 06:16:39;;;;;;;13.85;8.55;;;;;;;23.10;47.31;94133.34;5076260;28;20032;-76
2023/08/20 06:19:05;;;;;;;9.70;7.93;;;;;;;23.25;46.72;94136.84;5077716;28;20044;-76
2023/08/20 06:21:30;;;;;;;10.85;8.30;;;;;;;23.02;47.51;94148.84;5073225;28;20046;-77
2023/08/20 06:23:56;;;;;;;9.73;8.00;;;;;;;23.23;47.09;94129.09;5072316;28;20020;-78
2023/08/20 06:26:21;;;;;;;12.55;7.95;;;;;;;23.07;47.30;94143.00;5072067;28;21293;-79
2023/08/20 06:28:46;;;;;;;11.10;8.52;;;;;;;23.21;47.50;94138.78;5065364;28;20062;-77
2023/08/20 06:31:12;;;;;;;10.65;8.60;;;;;;;23.47;47.33;94138.41;5072013;28;20050;-78
2023/08/20 06:33:38;;;;;;;9.88;8.07;;;;;;;23.51;46.98;94147.38;5079146;28;20748;-77
2023/08/20 06:36:03;;;;;;;11.98;8.52;;;;;;;23.67;47.05;94138.84;5081071;28;20060;-79
2023/08/20 06:38:29;;;;;;;10.45;7.60;;;;;;;23.73;46.34;94143.50;5083191;28;20063;-79
2023/08/20 06:40:56;;;;;;;10.13;7.50;;;;;;;23.86;46.63;94133.00;5080302;28;21002;-79
2023/08/20 06:43:21;;;;;;;10.40;6.57;;;;;;;24.02;45.32;94144.25;5074586;28;20040;-76
2023/08/20 06:45:46;;;;;;;11.25;5.90;;;;;;;24.18;43.63;94146.59;5072845;28;20027;-80
2023/08/20 06:48:12;;;;;;;7.47;5.57;;;;;;;24.36;43.67;94139.16;5078516;28;20586;-78
2023/08/20 06:50:37;;;;;;;11.32;5.95;;;;;;;24.17;42.95;94139.59;5079945;28;20024;-77
2023/08/20 06:53:03;;;;;;;8.32;6.07;;;;;;;23.98;43.01;94138.84;5078455;28;20542;-78
2023/08/20 06:55:28;;;;;;;8.13;5.38;;;;;;;24.26;43.55;94134.53;5078220;28;20050;-78
2023/08/20 06:57:54;;;;;;;9.95;5.93;;;;;;;24.32;43.07;94136.47;5079817;28;20582;-77
2023/08/20 07:00:19;;;;;;;9.27;6.15;;;;;;;24.35;42.29;94140.31;5077209;28;20037;-80
2023/08/20 07:02:45;;;;;;;10.68;6.03;;;;;;;24.22;42.46;94126.38;5077200;28;20071;-78
2023/08/20 07:05:10;;;;;;;7.10;6.20;;;;;;;24.46;42.08;94135.63;5075055;28;20582;-78
2023/08/20 07:07:36;;;;;;;9.75;6.38;;;;;;;24.73;42.62;94144.91;5078194;27;20120;-78
2023/08/20 07:10:03;;;;;;;9.68;5.50;;;;;;;24.81;42.30;94149.13;5076471;28;20044;-80
2023/08/20 07:12:28;;;;;;;6.25;5.47;;;;;;;24.90;41.48;94140.53;5076346;28;20077;-77
2023/08/20 07:14:54;;;;;;;10.15;5.72;;;;;;;24.86;41.78;94147.94;5074012;28;20024;-77
2023/08/20 07:17:19;;;;;;;9.68;5.63;;;;;;;24.61;40.26;94137.13;5079161;28;20029;-80
2023/08/20 07:19:44;;;;;;;7.80;5.60;;;;;;;24.29;41.98;94136.47;5074104;28;20039;-78
2023/08/20 07:22:10;;;;;;;9.25;5.85;;;;;;;24.53;41.76;94151.16;5073904;28;20036;-80
2023/08/20 07:24:35;;;;;;;7.88;5.80;;;;;;;24.85;41.25;94147.16;5059882;28;20042;-80
2023/08/20 07:27:03;;;;;;;13.07;6.13;;;;;;;24.57;40.89;94141.81;5063011;27;20042;-80
2023/08/20 07:29:30;;;;;;;10.07;6.10;;;;;;;24.64;41.56;94130.13;5071908;28;20055;-80
2023/08/20 07:31:57;;;;;;;6.20;5.50;;;;;;;24.91;40.37;94149.47;5072815;28;20040;-79
2023/08/20 07:34:22;;;;;;;7.60;5.88;;;;;;;24.70;41.02;94151.09;5069564;28;20036;-77
2023/08/20 07:36:47;;;;;;;6.93;5.70;;;;;;;24.72;41.13;94148.00;5071474;28;20047;-78
2023/08/20 07:39:14;;;;;;;7.75;5.63;;;;;;;24.85;40.63;94146.38;5071911;28;20065;-77
2023/08/20 07:41:40;;;;;;;7.68;6.13;;;;;;;24.51;41.27;94140.66;5071998;28;20032;-79
2023/08/20 07:44:05;;;;;;;8.77;5.60;;;;;;;24.62;40.90;94125.09;5073972;28;20553;-79
2023/08/20 07:46:31;;;;;;;8.75;5.10;;;;;;;24.68;41.29;94153.44;5071591;28;20079;-78
2023/08/20 07:48:56;;;;;;;9.48;5.95;;;;;;;24.90;41.04;94142.47;5069723;28;20587;-77
2023/08/20 07:51:22;;;;;;;10.88;6.35;;;;;;;25.04;40.44;94154.06;5073732;28;20086;-77
2023/08/20 07:53:47;;;;;;;8.93;6.22;;;;;;;25.04;41.14;94142.41;5073338;28;20517;-79
2023/08/20 07:56:13;;;;;;;8.10;5.38;;;;;;;24.99;41.37;94142.81;5069466;28;20032;-80
2023/08/20 07:58:38;;;;;;;9.32;6.35;;;;;;;25.16;40.78;94150.91;5072634;28;20157;-77
2023/08/20 08:01:03;;;;;;;8.23;5.80;;;;;;;24.79;39.77;94142.53;5072433;28;20671;-78
2023/08/20 08:03:29;;;;;;;6.75;5.13;;;;;;;24.99;39.80;94145.53;5071704;28;20044;-77
2023/08/20 08:05:55;;;;;;;9.48;5.65;;;;;;;24.98;39.34;94144.00;5072403;28;20604;-80
2023/08/20 08:08:21;;;;;;;6.50;5.80;;;;;;;24.76;40.29;94154.97;5072759;28;20388;-78
2023/08/20 08:10:46;;;;;;;5.97;5.18;;;;;;;24.63;39.89;94148.41;5073345;28;20031;-80
2023/08/20 08:13:13;;;;;;;7.07;5.57;;;;;;;25.12;40.08;94149.38;5071570;28;20076;-77
2023/08/20 08:15:39;;;;;;;6.55;5.95;;;;;;;25.05;39.82;94112.09;5073927;28;20044;-78
2023/08/20 08:18:05;;;;;;;8.43;5.85;;;;;;;25.05;39.35;94141.25;5068673;28;20048;-78
2023/08/20 08:20:31;;;;;;;9.20;5.15;;;;;;;25.25;39.55;94136.84;5075614;28;20155;-79
2023/08/20 08:22:56;;;;;;;9.65;5.20;;;;;;;25.42;38.79;94157.75;5070249;28;20082;-78
2023/08/20 08:25:22;;;;;;;7.68;4.97;;;;;;;25.40;38.66;94157.41;5070867;28;20046;-77
2023/08/20 08:27:48;;;;;;;8.43;4.95;;;;;;;25.52;38.39;94165.06;5069507;28;20040;-79
2023/08/20 08:30:14;;;;;;;7.65;4.72;;;;;;;25.50;37.22;94153.81;5071601;28;20040;-78
2023/08/20 08:32:39;;;;;;;10.32;4.82;;;;;;;25.32;35.69;94149.69;5071567;28;20043;-77
2023/08/20 08:35:06;;;;;;;9.00;5.15;;;;;;;25.47;36.39;94146.44;5070268;28;20024;-79
2023/08/20 08:37:32;;;;;;;5.28;4.85;;;;;;;25.66;36.33;94145.91;5070547;27;20634;-76
2023/08/20 08:39:58;;;;;;;4.93;4.53;;;;;;;25.22;35.80;94148.53;5077256;28;20108;-80
2023/08/20 08:42:23;;;;;;;5.47;4.25;;;;;;;25.12;35.26;94143.94;5072499;28;20031;-79
2023/08/20 08:44:52;;;;;;;7.95;4.32;;;;;;;25.28;35.24;94134.09;5070302;28;20059;-78
2023/08/20 08:47:21;;;;;;;7.57;4.57;;;;;;;25.54;35.45;94137.44;5071482;28;20110;-81
2023/08/20 08:49:48;;;;;;;6.60;4.30;;;;;;;25.60;35.11;94147.53;5070957;28;20043;-77
2023/08/20 08:52:14;;;;;;;6.68;4.53;;;;;;;25.41;35.36;94134.44;5068077;28;20040;-79
2023/08/20 08:54:39;;;;;;;5.20;4.72;;;;;;;25.35;35.98;94140.69;5071055;28;20036;-79
2023/08/20 08:57:05;;;;;;;6.93;4.65;;;;;;;25.23;35.97;94145.41;5071196;28;20075;-78
2023/08/20 08:59:31;;;;;;;4.78;4.38;;;;;;;25.17;35.99;94140.78;5072233;28;20032;-81
2023/08/20 09:01:57;;;;;;;5.72;4.30;;;;;;;25.35;34.45;94141.47;5070976;28;20115;-78
2023/08/20 09:04:23;;;;;;;4.20;3.58;;;;;;;25.01;34.70;94154.88;5069079;28;20043;-80
2023/08/20 09:06:50;;;;;;;4.70;3.53;;;;;;;25.34;34.87;94150.81;5069693;28;20044;-77
2023/08/20 09:09:17;;;;;;;4.32;3.65;;;;;;;25.64;35.44;94140.09;5070675;28;20522;-77
2023/08/20 09:11:43;;;;;;;5.47;4.20;;;;;;;25.49;33.95;94146.03;5084851;27;20039;-77
2023/08/20 09:14:24;;;;;;;4.63;4.15;;;;;;;25.57;32.76;94147.53;5069456;28;20024;-80
2023/08/20 09:17:00;;;;;;;4.65;3.58;;;;;;;25.46;33.38;94150.34;5072989;28;20028;-77
2023/08/20 09:19:32;;;;;;;5.80;3.80;;;;;;;25.21;34.51;94126.00;5067924;28;20088;-78
2023/08/20 09:21:58;;;;;;;9.27;3.83;;;;;;;25.56;33.68;94133.16;5071606;28;20563;-77
2023/08/20 09:24:44;;;;;;;6.55;4.15;;;;;;;25.50;34.23;94137.50;5071030;28;20650;-78
2023/08/20 09:27:11;;;;;;;4.53;3.80;;;;;;;24.85;35.13;94130.06;5071393;28;20059;-78
2023/08/20 09:29:52;;;;;;;8.23;4.40;;;;;;;25.16;34.36;94144.69;5067684;28;20622;-77
2023/08/20 09:32:22;;;;;;;4.45;3.92;;;;;;;25.38;35.11;94148.84;5067763;28;20050;-76
2023/08/20 09:34:53;;;;;;;5.45;4.28;;;;;;;25.20;35.10;94145.44;5063736;28;20543;-78
2023/08/20 09:37:22;;;;;;;7.30;4.22;;;;;;;25.26;34.53;94141.13;5067922;28;20162;-76
2023/08/20 09:39:49;;;;;;;6.70;4.60;;;;;;;25.20;34.26;94145.44;5067069;28;20040;-76
2023/08/20 09:42:14;;;;;;;12.05;4.47;;;;;;;25.30;34.71;94128.25;5060438;28;20086;-78
2023/08/20 09:44:42;;;;;;;5.22;3.42;;;;;;;25.32;34.58;94128.69;5062277;28;20028;-80
2023/08/20 09:47:08;;;;;;;5.65;3.30;;;;;;;25.60;33.87;94144.81;5062824;28;20612;-78
2023/08/20 09:49:38;;;;;;;5.35;3.40;;;;;;;25.77;34.19;94128.69;5070723;28;20043;-76
2023/08/20 09:52:15;;;;;;;4.00;3.30;;;;;;;26.11;33.14;94129.59;5068529;28;20139;-79
2023/08/20 09:55:04;;;;;;;5.55;3.50;;;;;;;26.20;32.52;94132.63;5070166;28;20028;-78
2023/08/20 09:57:36;;;;;;;8.20;4.05;;;;;;;25.86;32.38;94121.63;5065229;28;20043;-76
2023/08/20 10:00:05;;;;;;;4.07;3.42;;;;;;;25.84;32.27;94134.09;5069753;28;20051;-79
2023/08/20 10:02:32;;;;;;;4.85;3.60;;;;;;;25.93;32.05;94121.59;5072195;28;20058;-77
2023/08/20 10:05:01;;;;;;;6.30;3.63;;;;;;;26.08;32.91;94122.22;5067582;28;20032;-79
2023/08/20 10:07:31;;;;;;;4.70;4.20;;;;;;;25.95;33.02;94127.41;5074450;28;20634;-77
2023/08/20 10:10:00;;;;;;;4.97;3.72;;;;;;;26.12;32.85;94129.19;5062790;28;20028;-76
2023/08/20 10:12:29;;;;;;;6.32;3.88;;;;;;;26.24;32.61;94114.28;5066543;28;20047;-77
2023/08/20 10:14:56;;;;;;;5.72;3.55;;;;;;;26.33;31.64;94133.66;5060407;28;20497;-78
2023/08/20 10:17:23;;;;;;;4.03;3.13;;;;;;;26.11;30.38;94137.75;5066928;28;20547;-76
2023/08/20 10:19:53;;;;;;;4.57;2.80;;;;;;;25.87;30.08;94130.56;5066619;28;20047;-79
2023/08/20 10:22:19;;;;;;;3.70;2.95;;;;;;;26.09;30.70;94140.13;5071195;28;20047;-76
2023/08/20 10:24:50;;;;;;;10.00;3.05;;;;;;;26.08;30.21;94127.69;5070718;28;20028;-76
2023/08/20 10:27:26;;;;;;;3.97;3.58;;;;;;;26.35;32.09;94131.28;5071011;28;20122;-77
2023/08/20 10:29:55;;;;;;;4.18;2.75;;;;;;;26.20;30.75;94113.56;5073891;28;20028;-77
2023/08/20 10:32:41;;;;;;;5.47;3.25;;;;;;;26.10;31.15;94119.88;5073231;28;20702;-78
2023/08/20 10:35:06;;;;;;;4.93;2.92;;;;;;;26.07;31.00;94126.91;4956855;28;20083;-78
2023/08/20 10:37:32;;;;;;;3.20;2.90;;;;;;;26.08;30.29;94122.22;5042330;28;20040;-79
2023/08/20 10:39:58;;;;;;;3.83;2.70;;;;;;;26.12;31.00;94123.75;5072191;28;20656;-79
2023/08/20 10:42:27;;;;;;;4.53;3.20;;;;;;;25.90;31.23;94118.91;5070324;28;20040;-77
2023/08/20 10:45:00;;;;;;;4.78;3.45;;;;;;;25.97;31.74;94116.09;5073816;28;20028;-76
2023/08/20 10:47:34;;;;;;;4.22;3.17;;;;;;;26.06;31.93;94119.13;5070234;28;20034;-80
2023/08/20 10:50:00;;;;;;;5.28;2.70;;;;;;;26.23;31.69;94110.00;5070704;28;20054;-79
2023/08/20 10:52:25;;;;;;;3.65;3.22;;;;;;;25.99;31.72;94100.13;5072444;28;20070;-79
2023/08/20 10:54:52;;;;;;;4.82;3.08;;;;;;;25.68;32.09;94099.97;5070014;28;20035;-76
2023/08/20 10:57:21;;;;;;;3.97;3.58;;;;;;;25.92;31.99;94114.59;5071851;28;20061;-76
2023/08/20 10:59:58;;;;;;;3.78;3.38;;;;;;;26.10;32.30;94103.53;5058944;28;20063;-78
2023/08/20 11:02:24;;;;;;;6.55;3.63;;;;;;;25.92;32.26;94092.78;5086248;27;20406;-79
2023/08/20 11:04:50;;;;;;;4.07;3.40;;;;;;;26.33;32.33;94100.16;5069431;28;20039;-77
2023/08/20 11:07:17;;;;;;;4.25;3.85;;;;;;;26.40;31.76;94106.28;5071102;28;20043;-79
2023/08/20 11:09:44;;;;;;;4.65;4.18;;;;;;;26.31;32.71;94097.06;5068540;28;20040;-77
2023/08/20 11:12:10;;;;;;;4.07;3.40;;;;;;;26.36;32.41;94089.22;5083338;27;20041;-79
2023/08/20 11:14:35;;;;;;;3.83;3.47;;;;;;;26.67;32.08;94092.00;5071022;28;20408;-77
2023/08/20 11:17:01;;;;;;;7.82;3.60;;;;;;;26.89;32.38;94099.50;5073256;28;20392;-79
2023/08/20 11:19:28;;;;;;;5.18;3.05;;;;;;;27.03;32.16;94090.38;5069965;28;20036;-76
2023/08/20 11:21:54;;;;;;;7.35;3.70;;;;;;;26.94;31.81;94095.53;5062108;28;20048;-77
2023/08/20 11:24:20;;;;;;;5.07;4.50;;;;;;;26.90;31.88;94089.34;5068304;28;20503;-76
2023/08/20 11:26:46;;;;;;;3.95;3.20;;;;;;;26.82;31.87;94088.69;5069386;28;20034;-77